TimePDT,TemperatureF,Dew PointF,Humidity,Sea Level PressureIn,VisibilityMPH,Wind Direction,Wind SpeedMPH,Gust SpeedMPH,PrecipitationIn,Events,Conditions,WindDirDegrees,DateUTC
12:53 AM,55.0,52.0,89,30.14,10.0,WSW,6.9,-,N/A,,Clear,250,2013-07-19 07:53:00
1:53 AM,53.1,51.1,93,30.14,10.0,West,4.6,-,N/A,,Clear,270,2013-07-19 08:53:00
2:53 AM,52.0,50.0,93,30.15,10.0,West,3.5,-,N/A,,Clear,260,2013-07-19 09:53:00
3:21 AM,51.8,50.0,94,30.15,10.0,WSW,5.8,-,N/A,,Scattered Clouds,250,2013-07-19 10:21:00
3:29 AM,51.8,50.0,94,30.15,10.0,West,6.9,-,N/A,,Mostly Cloudy,260,2013-07-19 10:29:00
3:53 AM,52.0,51.1,97,30.15,9.0,WSW,4.6,-,N/A,,Overcast,240,2013-07-19 10:53:00
4:53 AM,52.0,51.1,97,30.15,6.0,WSW,5.8,-,N/A,,Overcast,250,2013-07-19 11:53:00
5:29 AM,51.8,51.8,100,30.16,2.5,WSW,6.9,-,N/A,,Overcast,250,2013-07-19 12:29:00
5:53 AM,52.0,51.1,97,30.16,0.8,WSW,6.9,-,N/A,,Overcast,250,2013-07-19 12:53:00
6:51 AM,51.8,51.8,100,30.16,1.0,West,8.1,-,N/A,,Overcast,260,2013-07-19 13:51:00
6:53 AM,52.0,51.1,97,30.16,1.0,WSW,8.1,-,N/A,,Overcast,250,2013-07-19 13:53:00
7:31 AM,51.8,51.8,100,30.17,2.0,SW,8.1,-,N/A,,Overcast,230,2013-07-19 14:31:00
7:40 AM,51.8,51.8,100,30.16,1.2,WSW,9.2,-,N/A,,Overcast,240,2013-07-19 14:40:00
7:53 AM,52.0,51.1,97,30.17,2.0,WSW,6.9,-,N/A,,Overcast,240,2013-07-19 14:53:00
8:01 AM,51.8,51.8,100,30.17,3.0,WSW,6.9,-,N/A,,Overcast,250,2013-07-19 15:01:00
8:53 AM,54.0,52.0,93,30.17,10.0,SW,5.8,-,N/A,,Overcast,230,2013-07-19 15:53:00
9:14 AM,53.6,51.8,94,30.16,10.0,West,5.8,-,N/A,,Overcast,270,2013-07-19 16:14:00
9:53 AM,55.9,53.1,90,30.17,10.0,SSW,4.6,-,N/A,,Overcast,200,2013-07-19 16:53:00
10:05 AM,57.2,53.6,88,30.16,10.0,SW,4.6,-,N/A,,Overcast,220,2013-07-19 17:05:00
10:53 AM,59.0,54.0,83,30.17,10.0,Variable,4.6,-,N/A,,Overcast,0,2013-07-19 17:53:00
11:04 AM,60.8,53.6,77,30.16,10.0,Calm,Calm,-,N/A,,Overcast,0,2013-07-19 18:04:00
11:39 AM,64.4,55.4,73,30.16,10.0,Variable,4.6,-,N/A,,Scattered Clouds,0,2013-07-19 18:39:00
11:53 AM,64.0,55.0,73,30.16,10.0,Calm,Calm,-,N/A,,Partly Cloudy,0,2013-07-19 18:53:00
12:53 PM,68.0,57.0,68,30.14,10.0,West,8.1,-,N/A,,Clear,260,2013-07-19 19:53:00
1:53 PM,71.1,57.9,63,30.12,10.0,SW,9.2,-,N/A,,Clear,220,2013-07-19 20:53:00
2:53 PM,73.9,57.9,57,30.10,10.0,SW,10.4,-,N/A,,Clear,230,2013-07-19 21:53:00
3:53 PM,73.9,59.0,59,30.09,10.0,SW,13.8,-,N/A,,Clear,220,2013-07-19 22:53:00
4:53 PM,75.0,59.0,57,30.07,10.0,SW,15.0,-,N/A,,Clear,220,2013-07-19 23:53:00
5:53 PM,75.0,60.1,60,30.05,10.0,SW,13.8,-,N/A,,Clear,220,2013-07-20 00:53:00
6:53 PM,73.0,59.0,61,30.04,10.0,SW,16.1,-,N/A,,Clear,220,2013-07-20 01:53:00
7:53 PM,69.1,55.9,63,30.04,10.0,WSW,15.0,-,N/A,,Clear,240,2013-07-20 02:53:00
8:53 PM,64.0,55.9,75,30.06,10.0,WSW,11.5,-,N/A,,Clear,240,2013-07-20 03:53:00
9:53 PM,60.1,54.0,80,30.07,10.0,WSW,11.5,-,N/A,,Clear,240,2013-07-20 04:53:00
10:53 PM,55.9,52.0,87,30.08,10.0,WSW,12.7,20.7,N/A,,Clear,240,2013-07-20 05:53:00
11:18 PM,55.4,51.8,88,30.07,10.0,WSW,9.2,-,N/A,,Scattered Clouds,250,2013-07-20 06:18:00
11:30 PM,55.4,51.8,88,30.07,10.0,WSW,10.4,21.9,N/A,,Mostly Cloudy,240,2013-07-20 06:30:00
11:53 PM,55.0,52.0,89,30.07,10.0,WSW,13.8,21.9,N/A,,Overcast,240,2013-07-20 06:53:00